createdAt,value
2018-02-06T00:01:13.960Z,3.20
2018-02-06T00:03:40.231Z,3.30
2018-02-06T00:06:06.523Z,3.30
2018-02-06T00:08:33.121Z,3.30
2018-02-06T00:10:59.361Z,3.30
2018-02-06T00:13:25.962Z,3.40
2018-02-06T00:15:52.231Z,3.40
2018-02-06T00:18:18.806Z,3.20
2018-02-06T00:20:45.184Z,3.20
2018-02-06T00:23:11.411Z,3.20
2018-02-06T00:25:37.637Z,3.20
2018-02-06T00:28:03.922Z,3.20
2018-02-06T00:30:30.128Z,3.20
2018-02-06T00:32:56.452Z,3.20
2018-02-06T00:35:22.761Z,3.10
2018-02-06T00:37:48.970Z,2.90
2018-02-06T00:40:15.245Z,3.00
2018-02-06T00:42:41.581Z,3.00
2018-02-06T00:45:07.821Z,2.90
2018-02-06T00:47:34.047Z,3.00
2018-02-06T00:50:00.296Z,3.10
2018-02-06T00:52:26.499Z,3.00
2018-02-06T00:54:52.708Z,3.10
2018-02-06T00:57:19.824Z,3.20
2018-02-06T00:59:46.040Z,3.20
2018-02-06T01:02:12.279Z,3.10
2018-02-06T01:04:38.527Z,3.20
2018-02-06T01:07:05.591Z,3.20
2018-02-06T01:09:31.814Z,3.20
2018-02-06T01:11:58.024Z,3.30
2018-02-06T01:14:24.297Z,3.30
2018-02-06T01:16:50.548Z,3.40
2018-02-06T01:19:16.833Z,3.50
2018-02-06T01:21:43.089Z,3.30
2018-02-06T01:24:09.380Z,3.10
2018-02-06T01:26:35.989Z,3.20
2018-02-06T01:29:02.220Z,3.20
2018-02-06T01:31:28.499Z,3.10
2018-02-06T01:33:55.109Z,3.20
2018-02-06T01:36:21.739Z,3.10
2018-02-06T01:38:48.435Z,3.10
2018-02-06T01:41:14.674Z,3.20
2018-02-06T01:43:40.927Z,3.20
2018-02-06T01:46:07.139Z,3.20
2018-02-06T01:48:33.359Z,3.20
2018-02-06T01:50:59.555Z,3.30
2018-02-06T01:53:25.807Z,3.20
2018-02-06T01:55:52.732Z,3.20
2018-02-06T01:58:21.202Z,3.30
2018-02-06T02:00:47.491Z,3.30
2018-02-06T02:03:13.702Z,3.00
2018-02-06T02:05:39.946Z,3.10
2018-02-06T02:08:06.189Z,3.10
2018-02-06T02:10:32.887Z,3.10
2018-02-06T02:12:59.149Z,3.10
2018-02-06T02:15:25.728Z,3.20
2018-02-06T02:17:51.924Z,3.20
2018-02-06T02:20:18.516Z,3.20
2018-02-06T02:22:44.819Z,3.20
2018-02-06T02:25:11.595Z,3.20
2018-02-06T02:27:37.883Z,3.00
2018-02-06T02:30:04.261Z,3.00
2018-02-06T02:32:30.631Z,3.10
2018-02-06T02:34:56.887Z,3.00
2018-02-06T02:37:23.222Z,2.90
2018-02-06T02:39:49.419Z,2.90
2018-02-06T04:39:14.898Z,2.70
2018-02-06T04:41:41.249Z,2.80
2018-02-06T04:44:07.475Z,2.90
2018-02-06T04:46:34.046Z,2.60
2018-02-06T04:49:00.312Z,2.70
2018-02-06T04:51:26.863Z,2.70
2018-02-06T04:53:53.358Z,2.80
2018-02-06T04:56:19.545Z,2.70
2018-02-06T04:58:45.845Z,2.60
2018-02-06T05:01:12.489Z,2.60
2018-02-06T05:03:38.901Z,2.60
2018-02-06T05:06:05.480Z,2.50
2018-02-06T05:08:31.742Z,2.50
2018-02-06T05:10:58.034Z,2.40
2018-02-06T05:13:24.288Z,2.40
2018-02-06T05:15:50.531Z,2.40
2018-02-06T05:18:16.767Z,2.50
2018-02-06T05:20:43.019Z,2.50
2018-02-06T05:23:09.335Z,2.50
2018-02-06T05:25:35.949Z,2.60
2018-02-06T05:28:02.241Z,2.70
2018-02-06T05:30:28.836Z,2.50
2018-02-06T05:32:55.465Z,2.60
2018-02-06T05:35:21.688Z,2.50
2018-02-06T05:37:49.595Z,2.80
2018-02-06T05:40:15.866Z,2.60
2018-02-06T05:42:42.113Z,2.60
2018-02-06T05:45:08.376Z,2.60
2018-02-06T05:47:34.774Z,2.70
2018-02-06T05:50:01.060Z,2.90
2018-02-06T05:52:27.262Z,3.00
2018-02-06T05:54:53.880Z,2.80
2018-02-06T05:57:20.179Z,2.80
2018-02-06T05:59:46.432Z,2.90
2018-02-06T06:02:12.677Z,2.80
2018-02-06T06:04:38.972Z,2.80
2018-02-06T06:07:05.183Z,2.90
2018-02-06T06:09:31.743Z,3.00
2018-02-06T06:11:57.938Z,3.00
2018-02-06T06:14:24.168Z,3.10
2018-02-06T06:16:50.429Z,3.00
2018-02-06T06:19:16.663Z,3.00
2018-02-06T06:21:42.882Z,2.90
2018-02-06T06:24:10.045Z,3.00
2018-02-06T06:26:36.331Z,2.80
2018-02-06T06:29:02.528Z,2.60
2018-02-06T06:31:28.815Z,2.60
2018-02-06T06:33:55.529Z,2.60
2018-02-06T06:36:21.802Z,2.60
2018-02-06T06:38:48.145Z,2.60
2018-02-06T06:41:14.835Z,2.60
2018-02-06T06:43:41.145Z,2.60
2018-02-06T06:46:07.649Z,2.50
2018-02-06T06:48:34.280Z,2.60
2018-02-06T06:51:00.849Z,2.60
2018-02-06T06:53:27.168Z,2.60
2018-02-06T06:55:53.480Z,2.60
2018-02-06T06:58:19.752Z,2.60
2018-02-06T07:00:46.017Z,2.80
2018-02-06T07:03:12.806Z,2.80
2018-02-06T07:05:39.170Z,2.90
2018-02-06T07:08:05.522Z,2.90
2018-02-06T07:10:32.152Z,2.80
2018-02-06T07:12:58.459Z,2.70
2018-02-06T07:15:24.679Z,2.80
2018-02-06T07:17:50.996Z,2.90
2018-02-06T07:20:17.216Z,2.70
2018-02-06T07:22:43.462Z,2.80
2018-02-06T07:25:09.728Z,2.90
2018-02-06T07:27:35.955Z,2.70
2018-02-06T07:30:02.199Z,2.70
2018-02-06T07:32:28.835Z,3.00
2018-02-06T07:34:55.425Z,3.10
2018-02-06T07:37:22.323Z,3.10
2018-02-06T07:39:49.216Z,2.90
2018-02-06T07:42:15.469Z,2.90
2018-02-06T07:44:41.808Z,2.90
2018-02-06T07:47:08.103Z,2.70
2018-02-06T07:49:34.310Z,2.70
2018-02-06T07:52:00.505Z,2.70
2018-02-06T07:54:27.185Z,3.00
2018-02-06T07:56:53.502Z,3.00
2018-02-06T07:59:19.744Z,3.00
2018-02-06T08:01:46.547Z,3.00
2018-02-06T08:04:12.828Z,3.00
2018-02-06T08:06:39.711Z,3.20
2018-02-06T08:09:06.328Z,3.10
2018-02-06T08:11:32.820Z,3.10
2018-02-06T08:13:59.012Z,3.10
2018-02-06T08:16:25.584Z,2.90
2018-02-06T08:18:51.858Z,3.00
2018-02-06T08:21:18.071Z,3.00
2018-02-06T08:23:44.303Z,2.90
2018-02-06T08:26:10.523Z,3.00
2018-02-06T08:28:36.810Z,3.30
2018-02-06T08:31:03.055Z,3.20
2018-02-06T08:33:29.301Z,3.20
2018-02-06T08:35:55.572Z,3.20
2018-02-06T08:38:21.801Z,3.20
2018-02-06T08:40:48.423Z,3.50
2018-02-06T08:43:14.657Z,3.50
2018-02-06T08:45:41.717Z,3.60
2018-02-06T08:48:08.004Z,3.80
2018-02-06T08:50:34.218Z,4.10
2018-02-06T08:53:00.450Z,4.10
2018-02-06T08:55:26.656Z,4.10
2018-02-06T08:57:53.451Z,4.10
2018-02-06T09:00:19.705Z,4.10
2018-02-06T09:02:45.953Z,4.30
2018-02-06T09:05:12.194Z,4.50
2018-02-06T09:07:38.411Z,4.70
2018-02-06T09:10:04.633Z,4.80
2018-02-06T09:12:30.901Z,4.80
2018-02-06T09:14:57.209Z,4.80
2018-02-06T09:17:23.425Z,4.80
2018-02-06T09:19:49.690Z,4.80
2018-02-06T09:22:15.894Z,4.70
2018-02-06T09:24:42.467Z,4.70
2018-02-06T09:27:08.731Z,4.70
2018-02-06T09:29:35.330Z,4.60
2018-02-06T09:32:01.582Z,4.60
2018-02-06T09:34:28.232Z,4.40
2018-02-06T09:36:54.788Z,4.40
2018-02-06T09:39:21.051Z,4.40
2018-02-06T09:41:47.270Z,4.50
2018-02-06T09:44:13.495Z,4.70
2018-02-06T09:46:39.845Z,4.80
2018-02-06T09:49:06.045Z,4.70
2018-02-06T09:51:32.288Z,4.60
2018-02-06T09:53:58.499Z,4.70
2018-02-06T09:56:24.717Z,4.70
2018-02-06T09:58:50.896Z,4.80
2018-02-06T10:01:17.106Z,4.80
2018-02-06T10:03:43.334Z,4.80
2018-02-06T10:06:09.599Z,4.80
2018-02-06T10:08:36.202Z,4.60
2018-02-06T10:11:02.464Z,4.60
2018-02-06T10:13:29.410Z,4.50
2018-02-06T10:15:55.583Z,4.50
2018-02-06T10:18:21.778Z,4.60
2018-02-06T10:20:48.011Z,4.60
2018-02-06T10:23:14.200Z,4.50
2018-02-06T10:25:40.497Z,4.80
2018-02-06T10:28:06.730Z,5.10
2018-02-06T10:30:33.334Z,5.20
2018-02-06T10:32:59.550Z,5.10
2018-02-06T10:35:26.690Z,5.20
2018-02-06T10:37:52.985Z,5.20
2018-02-06T10:40:19.908Z,5.20
2018-02-06T10:42:46.151Z,5.20
2018-02-06T10:45:12.345Z,4.90
2018-02-06T10:47:38.941Z,5.00
2018-02-06T10:50:05.173Z,5.10
2018-02-06T10:52:31.734Z,5.10
2018-02-06T10:54:58.057Z,5.10
2018-02-06T10:57:24.639Z,5.00
2018-02-06T10:59:50.898Z,5.00
2018-02-06T11:02:17.570Z,6.10
2018-02-06T11:04:43.797Z,6.10
2018-02-06T11:07:10.034Z,6.10
2018-02-06T11:09:36.229Z,6.30
2018-02-06T11:12:02.818Z,5.90
2018-02-06T11:14:29.056Z,6.00
2018-02-06T11:16:55.266Z,5.70
2018-02-06T11:19:21.523Z,5.70
2018-02-06T11:21:48.632Z,5.70
2018-02-06T11:24:14.887Z,5.80
2018-02-06T11:26:41.375Z,5.90
2018-02-06T11:29:07.977Z,5.80
2018-02-06T11:31:34.286Z,5.80
2018-02-06T11:34:00.593Z,5.80
2018-02-06T11:36:26.777Z,5.50
2018-02-06T11:38:53.506Z,5.50
2018-02-06T11:41:20.130Z,5.80
2018-02-06T11:43:46.368Z,5.80
2018-02-06T11:46:12.655Z,6.40
2018-02-06T11:48:38.926Z,6.90
2018-02-06T11:51:05.416Z,7.30
2018-02-06T11:53:31.641Z,7.50
2018-02-06T11:55:57.870Z,7.70
2018-02-06T11:58:24.114Z,7.50
2018-02-06T12:00:50.474Z,7.50
2018-02-06T12:03:16.678Z,7.80
2018-02-06T12:05:42.915Z,8.20
2018-02-06T12:08:09.185Z,8.70
2018-02-06T12:10:35.358Z,9.60
2018-02-06T12:13:01.575Z,10.80
2018-02-06T12:15:27.792Z,12.10
2018-02-06T12:17:54.039Z,13.90
2018-02-06T12:20:20.321Z,15.60
2018-02-06T12:22:47.689Z,16.90
2018-02-06T12:25:14.262Z,18.70
2018-02-06T12:27:41.314Z,18.70
2018-02-06T12:30:07.587Z,19.50
2018-02-06T12:32:34.241Z,17.80
2018-02-06T12:35:00.478Z,17.80
2018-02-06T12:37:26.711Z,17.20
2018-02-06T12:39:52.943Z,17.20
2018-02-06T12:42:19.169Z,18.40
2018-02-06T12:44:45.387Z,19.30
2018-02-06T12:47:11.674Z,20.00
2018-02-06T12:49:37.917Z,19.10
2018-02-06T12:52:04.523Z,17.30
2018-02-06T12:54:30.728Z,17.30
2018-02-06T12:56:56.936Z,16.10
2018-02-06T12:59:23.173Z,14.90
2018-02-06T13:01:49.407Z,14.20
2018-02-06T13:04:15.641Z,14.30
2018-02-06T13:06:41.936Z,14.70
2018-02-06T13:09:08.221Z,14.60
2018-02-06T13:11:34.470Z,13.90
2018-02-06T13:14:01.083Z,13.50
2018-02-06T13:16:27.323Z,13.50
2018-02-06T13:18:53.533Z,13.50
2018-02-06T13:21:19.730Z,12.80
2018-02-06T13:23:45.921Z,12.40
2018-02-06T13:26:12.134Z,12.40
2018-02-06T13:28:38.361Z,11.80
2018-02-06T13:31:04.607Z,11.70
2018-02-06T13:33:30.800Z,12.40
2018-02-06T13:35:57.027Z,13.20
2018-02-06T13:38:23.232Z,13.30
2018-02-06T13:40:49.467Z,12.70
2018-02-06T13:43:15.714Z,12.40
2018-02-06T13:45:41.975Z,12.00
2018-02-06T13:48:08.217Z,12.20
2018-02-06T13:50:34.790Z,11.80
2018-02-06T13:53:00.985Z,11.80
2018-02-06T13:55:27.583Z,11.40
2018-02-06T13:57:54.171Z,11.40
